sensor_id;sensor_type;location;lat;lon;timestamp;temperature;humidity
32215;DHT22;18708;53.124;23.190;2022-09-09T00:00:24;11.20;99.90
32215;DHT22;18708;53.124;23.190;2022-09-09T00:05:51;11.10;99.90
32215;DHT22;18708;53.124;23.190;2022-09-09T00:08:24;11.10;99.90
32215;DHT22;18708;53.124;23.190;2022-09-09T00:10:58;11.00;99.90
32215;DHT22;18708;53.124;23.190;2022-09-09T00:13:38;11.10;99.90
32215;DHT22;18708;53.124;23.190;2022-09-09T00:16:25;11.10;99.90
32215;DHT22;18708;53.124;23.190;2022-09-09T00:19:02;11.20;99.90
32215;DHT22;18708;53.124;23.190;2022-09-09T00:21:38;11.10;99.90
32215;DHT22;18708;53.124;23.190;2022-09-09T00:24:32;11.10;99.90
32215;DHT22;18708;53.124;23.190;2022-09-09T00:30:34;11.00;99.90
32215;DHT22;18708;53.124;23.190;2022-09-09T00:33:00;11.00;99.90
32215;DHT22;18708;53.124;23.190;2022-09-09T00:35:38;11.00;99.90
32215;DHT22;18708;53.124;23.190;2022-09-09T00:38:18;11.00;99.90
32215;DHT22;18708;53.124;23.190;2022-09-09T00:41:15;11.00;99.90
32215;DHT22;18708;53.124;23.190;2022-09-09T00:43:51;11.00;99.90
32215;DHT22;18708;53.124;23.190;2022-09-09T00:57:38;10.80;99.90
32215;DHT22;18708;53.124;23.190;2022-09-09T01:07:58;10.80;99.90
32215;DHT22;18708;53.124;23.190;2022-09-09T01:13:08;10.70;99.90
32215;DHT22;18708;53.124;23.190;2022-09-09T01:15:39;10.70;99.90
32215;DHT22;18708;53.124;23.190;2022-09-09T01:18:10;10.70;99.90
32215;DHT22;18708;53.124;23.190;2022-09-09T01:28:36;10.60;99.90
32215;DHT22;18708;53.124;23.190;2022-09-09T01:31:04;10.50;99.90
32215;DHT22;18708;53.124;23.190;2022-09-09T01:33:31;10.50;99.90
32215;DHT22;18708;53.124;23.190;2022-09-09T01:36:02;10.60;99.90
32215;DHT22;18708;53.124;23.190;2022-09-09T01:38:31;10.50;99.90
32215;DHT22;18708;53.124;23.190;2022-09-09T01:40:58;10.60;99.90
32215;DHT22;18708;53.124;23.190;2022-09-09T01:43:25;10.50;99.90
32215;DHT22;18708;53.124;23.190;2022-09-09T01:45:54;10.40;99.90
32215;DHT22;18708;53.124;23.190;2022-09-09T01:48:22;10.40;99.90
32215;DHT22;18708;53.124;23.190;2022-09-09T01:50:48;10.50;99.90
32215;DHT22;18708;53.124;23.190;2022-09-09T01:53:16;10.50;99.90
32215;DHT22;18708;53.124;23.190;2022-09-09T02:02:01;10.40;99.90
32215;DHT22;18708;53.124;23.190;2022-09-09T02:04:43;10.40;99.90
32215;DHT22;18708;53.124;23.190;2022-09-09T02:07:35;10.40;99.90
32215;DHT22;18708;53.124;23.190;2022-09-09T02:10:16;10.40;99.90
32215;DHT22;18708;53.124;23.190;2022-09-09T02:12:49;10.40;99.90
32215;DHT22;18708;53.124;23.190;2022-09-09T02:15:28;10.40;99.90
32215;DHT22;18708;53.124;23.190;2022-09-09T02:17:57;10.40;99.90
32215;DHT22;18708;53.124;23.190;2022-09-09T02:20:24;10.40;99.90
32215;DHT22;18708;53.124;23.190;2022-09-09T02:22:53;10.30;99.90
32215;DHT22;18708;53.124;23.190;2022-09-09T02:25:22;10.30;99.90
32215;DHT22;18708;53.124;23.190;2022-09-09T02:27:50;10.30;99.90
32215;DHT22;18708;53.124;23.190;2022-09-09T02:30:20;10.30;99.90
32215;DHT22;18708;53.124;23.190;2022-09-09T02:32:47;10.30;99.90
32215;DHT22;18708;53.124;23.190;2022-09-09T02:35:17;10.20;99.90
32215;DHT22;18708;53.124;23.190;2022-09-09T02:37:45;10.20;99.90
32215;DHT22;18708;53.124;23.190;2022-09-09T02:40:14;10.20;99.90
32215;DHT22;18708;53.124;23.190;2022-09-09T02:42:45;10.20;99.90
32215;DHT22;18708;53.124;23.190;2022-09-09T02:45:14;10.20;99.90
32215;DHT22;18708;53.124;23.190;2022-09-09T02:50:25;10.10;99.90
32215;DHT22;18708;53.124;23.190;2022-09-09T02:55:47;10.10;99.90
32215;DHT22;18708;53.124;23.190;2022-09-09T02:58:16;10.10;99.90
32215;DHT22;18708;53.124;23.190;2022-09-09T03:00:44;10.10;99.90
32215;DHT22;18708;53.124;23.190;2022-09-09T03:03:10;10.10;99.90
32215;DHT22;18708;53.124;23.190;2022-09-09T03:05:36;10.00;99.90
32215;DHT22;18708;53.124;23.190;2022-09-09T03:08:03;10.00;99.90
32215;DHT22;18708;53.124;23.190;2022-09-09T03:10:31;10.00;99.90
32215;DHT22;18708;53.124;23.190;2022-09-09T03:12:56;10.00;99.90
32215;DHT22;18708;53.124;23.190;2022-09-09T03:15:22;10.00;99.90
32215;DHT22;18708;53.124;23.190;2022-09-09T03:17:48;10.00;99.90
32215;DHT22;18708;53.124;23.190;2022-09-09T03:20:13;9.90;99.90
32215;DHT22;18708;53.124;23.190;2022-09-09T03:22:39;9.90;99.90
32215;DHT22;18708;53.124;23.190;2022-09-09T03:25:05;9.90;99.90
32215;DHT22;18708;53.124;23.190;2022-09-09T03:27:31;9.90;99.90
32215;DHT22;18708;53.124;23.190;2022-09-09T03:29:58;9.90;99.90
32215;DHT22;18708;53.124;23.190;2022-09-09T03:32:24;9.90;99.90
32215;DHT22;18708;53.124;23.190;2022-09-09T03:34:51;9.90;99.90
32215;DHT22;18708;53.124;23.190;2022-09-09T03:37:18;9.90;99.90
32215;DHT22;18708;53.124;23.190;2022-09-09T03:39:44;9.90;99.90
32215;DHT22;18708;53.124;23.190;2022-09-09T03:42:12;9.90;99.90
32215;DHT22;18708;53.124;23.190;2022-09-09T03:44:40;9.90;99.90
32215;DHT22;18708;53.124;23.190;2022-09-09T03:47:07;9.90;99.90
32215;DHT22;18708;53.124;23.190;2022-09-09T03:49:33;9.90;99.90
32215;DHT22;18708;53.124;23.190;2022-09-09T03:51:59;9.90;99.90
32215;DHT22;18708;53.124;23.190;2022-09-09T03:54:26;9.90;99.90
32215;DHT22;18708;53.124;23.190;2022-09-09T03:56:52;9.80;99.90
32215;DHT22;18708;53.124;23.190;2022-09-09T03:59:19;9.90;99.90
32215;DHT22;18708;53.124;23.190;2022-09-09T04:01:45;9.80;99.90
32215;DHT22;18708;53.124;23.190;2022-09-09T04:04:12;9.80;99.90
32215;DHT22;18708;53.124;23.190;2022-09-09T04:06:38;9.80;99.90
32215;DHT22;18708;53.124;23.190;2022-09-09T04:09:04;9.80;99.90
32215;DHT22;18708;53.124;23.190;2022-09-09T04:11:29;9.80;99.90
32215;DHT22;18708;53.124;23.190;2022-09-09T04:13:55;9.80;99.90
32215;DHT22;18708;53.124;23.190;2022-09-09T04:16:21;9.80;99.90
32215;DHT22;18708;53.124;23.190;2022-09-09T04:18:47;9.80;99.90
32215;DHT22;18708;53.124;23.190;2022-09-09T04:21:13;9.80;99.90
32215;DHT22;18708;53.124;23.190;2022-09-09T04:23:39;9.80;99.90
32215;DHT22;18708;53.124;23.190;2022-09-09T04:26:05;9.80;99.90
32215;DHT22;18708;53.124;23.190;2022-09-09T04:28:33;9.80;99.90
32215;DHT22;18708;53.124;23.190;2022-09-09T04:31:07;9.80;99.90
32215;DHT22;18708;53.124;23.190;2022-09-09T04:33:34;9.80;99.90
32215;DHT22;18708;53.124;23.190;2022-09-09T04:36:00;9.80;99.90
32215;DHT22;18708;53.124;23.190;2022-09-09T04:38:26;9.80;99.90
32215;DHT22;18708;53.124;23.190;2022-09-09T04:40:52;9.80;99.90
32215;DHT22;18708;53.124;23.190;2022-09-09T04:43:19;9.80;99.90
32215;DHT22;18708;53.124;23.190;2022-09-09T04:45:50;9.90;99.90
32215;DHT22;18708;53.124;23.190;2022-09-09T04:48:17;9.80;99.90
32215;DHT22;18708;53.124;23.190;2022-09-09T04:50:42;9.80;99.90
32215;DHT22;18708;53.124;23.190;2022-09-09T04:53:08;9.90;99.90
32215;DHT22;18708;53.124;23.190;2022-09-09T04:55:35;9.90;99.90
32215;DHT22;18708;53.124;23.190;2022-09-09T04:58:05;9.90;99.90
32215;DHT22;18708;53.124;23.190;2022-09-09T05:00:32;9.90;99.90
32215;DHT22;18708;53.124;23.190;2022-09-09T05:02:57;9.90;99.90
32215;DHT22;18708;53.124;23.190;2022-09-09T05:05:23;10.00;99.90
32215;DHT22;18708;53.124;23.190;2022-09-09T05:07:49;10.00;99.90
32215;DHT22;18708;53.124;23.190;2022-09-09T05:10:14;10.00;99.90
32215;DHT22;18708;53.124;23.190;2022-09-09T05:12:41;10.00;99.90
32215;DHT22;18708;53.124;23.190;2022-09-09T05:15:08;10.00;99.90
32215;DHT22;18708;53.124;23.190;2022-09-09T05:17:33;10.00;99.90
32215;DHT22;18708;53.124;23.190;2022-09-09T05:19:59;10.10;99.90
32215;DHT22;18708;53.124;23.190;2022-09-09T05:22:25;10.10;99.90
32215;DHT22;18708;53.124;23.190;2022-09-09T05:24:51;10.10;99.90
32215;DHT22;18708;53.124;23.190;2022-09-09T05:27:20;10.10;99.90
32215;DHT22;18708;53.124;23.190;2022-09-09T05:29:46;10.10;99.90
32215;DHT22;18708;53.124;23.190;2022-09-09T05:32:12;10.10;99.90
32215;DHT22;18708;53.124;23.190;2022-09-09T05:34:39;10.10;99.90
32215;DHT22;18708;53.124;23.190;2022-09-09T05:37:05;10.10;99.90
32215;DHT22;18708;53.124;23.190;2022-09-09T05:39:33;10.20;99.90
32215;DHT22;18708;53.124;23.190;2022-09-09T05:41:59;10.20;99.90
32215;DHT22;18708;53.124;23.190;2022-09-09T05:44:24;10.20;99.90
32215;DHT22;18708;53.124;23.190;2022-09-09T05:46:53;10.20;99.90
32215;DHT22;18708;53.124;23.190;2022-09-09T05:49:19;10.20;99.90
32215;DHT22;18708;53.124;23.190;2022-09-09T05:51:46;10.20;99.90
32215;DHT22;18708;53.124;23.190;2022-09-09T05:54:12;10.20;99.90
32215;DHT22;18708;53.124;23.190;2022-09-09T05:56:41;10.30;99.90
32215;DHT22;18708;53.124;23.190;2022-09-09T05:59:07;10.20;99.90
32215;DHT22;18708;53.124;23.190;2022-09-09T06:01:35;10.20;99.90
32215;DHT22;18708;53.124;23.190;2022-09-09T06:04:02;10.30;99.90
32215;DHT22;18708;53.124;23.190;2022-09-09T06:06:31;10.30;99.90
32215;DHT22;18708;53.124;23.190;2022-09-09T06:08:57;10.30;99.90
32215;DHT22;18708;53.124;23.190;2022-09-09T06:11:26;10.30;99.90
32215;DHT22;18708;53.124;23.190;2022-09-09T06:13:52;10.30;99.90
32215;DHT22;18708;53.124;23.190;2022-09-09T06:16:24;10.30;99.90
32215;DHT22;18708;53.124;23.190;2022-09-09T06:18:51;10.30;99.90
32215;DHT22;18708;53.124;23.190;2022-09-09T06:21:19;10.30;99.90
32215;DHT22;18708;53.124;23.190;2022-09-09T06:23:46;10.30;99.90
32215;DHT22;18708;53.124;23.190;2022-09-09T06:26:14;10.30;99.90
32215;DHT22;18708;53.124;23.190;2022-09-09T06:28:42;10.30;99.90
32215;DHT22;18708;53.124;23.190;2022-09-09T06:31:11;10.40;99.90
32215;DHT22;18708;53.124;23.190;2022-09-09T06:33:39;10.40;99.90
32215;DHT22;18708;53.124;23.190;2022-09-09T06:36:07;10.40;99.90
32215;DHT22;18708;53.124;23.190;2022-09-09T06:38:35;10.40;99.90
32215;DHT22;18708;53.124;23.190;2022-09-09T06:41:01;10.40;99.90
32215;DHT22;18708;53.124;23.190;2022-09-09T06:43:27;10.40;99.90
32215;DHT22;18708;53.124;23.190;2022-09-09T06:46:14;10.50;99.90
32215;DHT22;18708;53.124;23.190;2022-09-09T06:48:41;10.50;99.90
32215;DHT22;18708;53.124;23.190;2022-09-09T06:51:12;10.50;99.90
32215;DHT22;18708;53.124;23.190;2022-09-09T06:53:40;10.60;99.90
32215;DHT22;18708;53.124;23.190;2022-09-09T06:56:23;10.50;99.90
32215;DHT22;18708;53.124;23.190;2022-09-09T06:58:50;10.50;99.90
32215;DHT22;18708;53.124;23.190;2022-09-09T07:01:19;10.40;99.90
32215;DHT22;18708;53.124;23.190;2022-09-09T07:03:47;10.30;99.90
32215;DHT22;18708;53.124;23.190;2022-09-09T07:06:16;10.30;99.90
32215;DHT22;18708;53.124;23.190;2022-09-09T07:08:43;10.20;99.90
32215;DHT22;18708;53.124;23.190;2022-09-09T07:11:09;10.30;99.90
32215;DHT22;18708;53.124;23.190;2022-09-09T07:13:36;10.30;99.90
32215;DHT22;18708;53.124;23.190;2022-09-09T07:16:07;10.30;99.90
32215;DHT22;18708;53.124;23.190;2022-09-09T07:18:34;10.30;99.90
32215;DHT22;18708;53.124;23.190;2022-09-09T07:21:00;10.30;99.90
32215;DHT22;18708;53.124;23.190;2022-09-09T07:23:26;10.30;99.90
32215;DHT22;18708;53.124;23.190;2022-09-09T07:25:52;10.40;99.90
32215;DHT22;18708;53.124;23.190;2022-09-09T07:28:19;10.30;99.90
32215;DHT22;18708;53.124;23.190;2022-09-09T07:30:54;10.30;99.90
32215;DHT22;18708;53.124;23.190;2022-09-09T07:33:19;10.30;99.90
32215;DHT22;18708;53.124;23.190;2022-09-09T07:35:45;10.20;99.90
32215;DHT22;18708;53.124;23.190;2022-09-09T07:38:11;10.30;99.90
32215;DHT22;18708;53.124;23.190;2022-09-09T07:40:37;10.20;99.90
32215;DHT22;18708;53.124;23.190;2022-09-09T07:43:03;10.30;99.90
32215;DHT22;18708;53.124;23.190;2022-09-09T07:45:28;10.30;99.90
32215;DHT22;18708;53.124;23.190;2022-09-09T07:47:54;10.40;99.90
32215;DHT22;18708;53.124;23.190;2022-09-09T07:50:23;10.40;99.90
32215;DHT22;18708;53.124;23.190;2022-09-09T07:52:50;10.40;99.90
32215;DHT22;18708;53.124;23.190;2022-09-09T07:55:16;10.50;99.90
32215;DHT22;18708;53.124;23.190;2022-09-09T07:57:41;10.50;99.90
32215;DHT22;18708;53.124;23.190;2022-09-09T08:00:07;10.60;99.90
32215;DHT22;18708;53.124;23.190;2022-09-09T08:02:33;10.60;99.90
32215;DHT22;18708;53.124;23.190;2022-09-09T08:04:59;10.60;99.90
32215;DHT22;18708;53.124;23.190;2022-09-09T08:07:25;10.60;99.90
32215;DHT22;18708;53.124;23.190;2022-09-09T08:09:51;10.60;99.90
32215;DHT22;18708;53.124;23.190;2022-09-09T08:12:17;10.60;99.90
32215;DHT22;18708;53.124;23.190;2022-09-09T08:14:43;10.60;99.90
32215;DHT22;18708;53.124;23.190;2022-09-09T08:17:09;10.60;99.90
32215;DHT22;18708;53.124;23.190;2022-09-09T08:19:35;10.60;99.90
32215;DHT22;18708;53.124;23.190;2022-09-09T08:22:02;10.50;99.90
32215;DHT22;18708;53.124;23.190;2022-09-09T08:24:28;10.40;99.90
32215;DHT22;18708;53.124;23.190;2022-09-09T08:26:54;10.40;99.90
32215;DHT22;18708;53.124;23.190;2022-09-09T08:29:20;10.30;99.90
32215;DHT22;18708;53.124;23.190;2022-09-09T08:31:48;10.30;99.90
32215;DHT22;18708;53.124;23.190;2022-09-09T08:34:15;10.20;99.90
32215;DHT22;18708;53.124;23.190;2022-09-09T08:36:43;10.20;99.90
32215;DHT22;18708;53.124;23.190;2022-09-09T08:39:10;10.10;99.90
32215;DHT22;18708;53.124;23.190;2022-09-09T08:41:52;10.10;99.90
32215;DHT22;18708;53.124;23.190;2022-09-09T08:47:17;10.00;99.90
32215;DHT22;18708;53.124;23.190;2022-09-09T08:52:29;9.90;99.90
32215;DHT22;18708;53.124;23.190;2022-09-09T08:57:39;9.70;99.90
32215;DHT22;18708;53.124;23.190;2022-09-09T09:00:07;9.60;99.90
32215;DHT22;18708;53.124;23.190;2022-09-09T09:03:05;9.60;99.90
32215;DHT22;18708;53.124;23.190;2022-09-09T09:08:43;9.50;99.90
32215;DHT22;18708;53.124;23.190;2022-09-09T09:11:12;9.50;99.90
32215;DHT22;18708;53.124;23.190;2022-09-09T09:16:19;9.40;99.90
32215;DHT22;18708;53.124;23.190;2022-09-09T09:18:47;9.40;99.90
32215;DHT22;18708;53.124;23.190;2022-09-09T09:23:58;9.40;99.90
32215;DHT22;18708;53.124;23.190;2022-09-09T09:26:34;9.40;99.90
32215;DHT22;18708;53.124;23.190;2022-09-09T09:29:14;9.50;99.90
32215;DHT22;18708;53.124;23.190;2022-09-09T09:32:01;9.50;99.90
32215;DHT22;18708;53.124;23.190;2022-09-09T09:34:28;9.40;99.90
32215;DHT22;18708;53.124;23.190;2022-09-09T09:36:57;9.50;99.90
32215;DHT22;18708;53.124;23.190;2022-09-09T09:39:28;9.50;99.90
32215;DHT22;18708;53.124;23.190;2022-09-09T09:41:55;9.50;99.90
32215;DHT22;18708;53.124;23.190;2022-09-09T09:44:27;9.50;99.90
32215;DHT22;18708;53.124;23.190;2022-09-09T09:47:12;9.50;99.90
32215;DHT22;18708;53.124;23.190;2022-09-09T09:49:39;9.40;99.90
32215;DHT22;18708;53.124;23.190;2022-09-09T09:52:06;9.40;99.90
32215;DHT22;18708;53.124;23.190;2022-09-09T09:54:37;9.40;99.90
32215;DHT22;18708;53.124;23.190;2022-09-09T09:57:14;9.40;99.90
32215;DHT22;18708;53.124;23.190;2022-09-09T09:59:41;9.40;99.90
32215;DHT22;18708;53.124;23.190;2022-09-09T10:02:22;9.40;99.90
32215;DHT22;18708;53.124;23.190;2022-09-09T10:05:18;9.40;99.90
32215;DHT22;18708;53.124;23.190;2022-09-09T10:07:45;9.50;99.90
32215;DHT22;18708;53.124;23.190;2022-09-09T10:10:25;9.50;99.90
32215;DHT22;18708;53.124;23.190;2022-09-09T10:34:55;9.60;99.90
32215;DHT22;18708;53.124;23.190;2022-09-09T10:46:03;9.70;99.90
32215;DHT22;18708;53.124;23.190;2022-09-09T10:51:33;9.80;99.90
32215;DHT22;18708;53.124;23.190;2022-09-09T10:57:13;9.90;99.90
32215;DHT22;18708;53.124;23.190;2022-09-09T10:59:47;10.00;99.90
32215;DHT22;18708;53.124;23.190;2022-09-09T11:02:27;10.00;99.90
32215;DHT22;18708;53.124;23.190;2022-09-09T11:13:03;10.30;99.90
32215;DHT22;18708;53.124;23.190;2022-09-09T11:15:36;10.40;99.90
32215;DHT22;18708;53.124;23.190;2022-09-09T11:18:11;10.40;99.90
32215;DHT22;18708;53.124;23.190;2022-09-09T11:20:39;10.40;99.90
32215;DHT22;18708;53.124;23.190;2022-09-09T11:23:22;10.40;99.90
32215;DHT22;18708;53.124;23.190;2022-09-09T11:25:55;10.50;99.90
32215;DHT22;18708;53.124;23.190;2022-09-09T11:37:16;10.60;99.90
32215;DHT22;18708;53.124;23.190;2022-09-09T11:42:35;10.60;99.90
32215;DHT22;18708;53.124;23.190;2022-09-09T11:45:27;10.60;99.90
32215;DHT22;18708;53.124;23.190;2022-09-09T11:47:59;10.60;99.90
32215;DHT22;18708;53.124;23.190;2022-09-09T11:53:02;10.60;99.90
32215;DHT22;18708;53.124;23.190;2022-09-09T11:55:30;10.70;99.90
32215;DHT22;18708;53.124;23.190;2022-09-09T11:58:05;10.70;99.90
32215;DHT22;18708;53.124;23.190;2022-09-09T12:00:44;10.80;99.90
32215;DHT22;18708;53.124;23.190;2022-09-09T12:06:18;10.70;99.90
32215;DHT22;18708;53.124;23.190;2022-09-09T12:08:50;10.70;99.90
32215;DHT22;18708;53.124;23.190;2022-09-09T12:11:25;10.70;99.90
32215;DHT22;18708;53.124;23.190;2022-09-09T12:13:53;10.80;99.90
32215;DHT22;18708;53.124;23.190;2022-09-09T12:16:37;10.80;99.90
32215;DHT22;18708;53.124;23.190;2022-09-09T12:19:19;10.80;99.90
32215;DHT22;18708;53.124;23.190;2022-09-09T12:24:49;10.80;99.90
32215;DHT22;18708;53.124;23.190;2022-09-09T12:27:40;10.80;99.90
32215;DHT22;18708;53.124;23.190;2022-09-09T12:30:14;10.80;99.90
32215;DHT22;18708;53.124;23.190;2022-09-09T12:32:40;10.90;99.90
32215;DHT22;18708;53.124;23.190;2022-09-09T12:35:13;10.90;99.90
32215;DHT22;18708;53.124;23.190;2022-09-09T12:37:51;10.90;99.90
32215;DHT22;18708;53.124;23.190;2022-09-09T12:40:24;10.90;99.90
32215;DHT22;18708;53.124;23.190;2022-09-09T12:42:50;10.90;99.90
32215;DHT22;18708;53.124;23.190;2022-09-09T12:45:21;10.90;99.90
32215;DHT22;18708;53.124;23.190;2022-09-09T12:47:57;10.90;99.90
32215;DHT22;18708;53.124;23.190;2022-09-09T12:50:30;11.00;99.90
32215;DHT22;18708;53.124;23.190;2022-09-09T12:53:04;11.00;99.90
32215;DHT22;18708;53.124;23.190;2022-09-09T12:55:35;11.00;99.90
32215;DHT22;18708;53.124;23.190;2022-09-09T12:58:03;11.10;99.90
32215;DHT22;18708;53.124;23.190;2022-09-09T13:00:33;11.10;99.90
32215;DHT22;18708;53.124;23.190;2022-09-09T13:03:00;11.20;99.90
32215;DHT22;18708;53.124;23.190;2022-09-09T13:05:35;11.20;99.90
32215;DHT22;18708;53.124;23.190;2022-09-09T13:08:06;11.20;99.90
32215;DHT22;18708;53.124;23.190;2022-09-09T13:10:36;11.30;99.90
32215;DHT22;18708;53.124;23.190;2022-09-09T13:13:05;11.20;99.90
32215;DHT22;18708;53.124;23.190;2022-09-09T13:15:38;11.20;99.90
32215;DHT22;18708;53.124;23.190;2022-09-09T13:18:10;11.20;99.90
32215;DHT22;18708;53.124;23.190;2022-09-09T13:20:37;11.20;99.90
32215;DHT22;18708;53.124;23.190;2022-09-09T13:23:02;11.20;99.90
32215;DHT22;18708;53.124;23.190;2022-09-09T13:25:29;11.20;99.90
32215;DHT22;18708;53.124;23.190;2022-09-09T13:28:05;11.10;99.90
32215;DHT22;18708;53.124;23.190;2022-09-09T13:30:36;11.20;99.90
32215;DHT22;18708;53.124;23.190;2022-09-09T13:35:45;11.10;99.90
32215;DHT22;18708;53.124;23.190;2022-09-09T13:38:14;11.10;99.90
32215;DHT22;18708;53.124;23.190;2022-09-09T13:40:58;11.10;99.90
32215;DHT22;18708;53.124;23.190;2022-09-09T13:43:26;11.10;99.90
32215;DHT22;18708;53.124;23.190;2022-09-09T13:45:57;11.10;99.90
32215;DHT22;18708;53.124;23.190;2022-09-09T13:48:24;11.00;99.90
32215;DHT22;18708;53.124;23.190;2022-09-09T13:51:03;11.10;99.90
32215;DHT22;18708;53.124;23.190;2022-09-09T13:53:33;11.00;99.90
32215;DHT22;18708;53.124;23.190;2022-09-09T13:55:59;11.00;99.90
32215;DHT22;18708;53.124;23.190;2022-09-09T13:58:25;11.00;99.90
32215;DHT22;18708;53.124;23.190;2022-09-09T14:00:52;11.00;99.90
32215;DHT22;18708;53.124;23.190;2022-09-09T14:03:19;11.00;99.90
32215;DHT22;18708;53.124;23.190;2022-09-09T14:05:45;11.00;99.90
32215;DHT22;18708;53.124;23.190;2022-09-09T14:08:20;11.00;99.90
32215;DHT22;18708;53.124;23.190;2022-09-09T14:10:47;10.90;99.90
32215;DHT22;18708;53.124;23.190;2022-09-09T14:13:12;10.90;99.90
32215;DHT22;18708;53.124;23.190;2022-09-09T14:15:38;10.90;99.90
32215;DHT22;18708;53.124;23.190;2022-09-09T14:18:04;10.90;99.90
32215;DHT22;18708;53.124;23.190;2022-09-09T14:20:30;10.90;99.90
32215;DHT22;18708;53.124;23.190;2022-09-09T14:22:55;10.90;99.90
32215;DHT22;18708;53.124;23.190;2022-09-09T14:25:23;10.90;99.90
32215;DHT22;18708;53.124;23.190;2022-09-09T14:27:49;10.90;99.90
32215;DHT22;18708;53.124;23.190;2022-09-09T14:30:16;10.90;99.90
32215;DHT22;18708;53.124;23.190;2022-09-09T14:32:43;10.90;99.90
32215;DHT22;18708;53.124;23.190;2022-09-09T14:35:09;10.90;99.90
32215;DHT22;18708;53.124;23.190;2022-09-09T14:37:34;10.90;99.90
32215;DHT22;18708;53.124;23.190;2022-09-09T14:40:00;10.90;99.90
32215;DHT22;18708;53.124;23.190;2022-09-09T14:42:26;10.90;99.90
32215;DHT22;18708;53.124;23.190;2022-09-09T14:44:52;11.00;99.90
32215;DHT22;18708;53.124;23.190;2022-09-09T14:47:18;11.00;99.90
32215;DHT22;18708;53.124;23.190;2022-09-09T14:49:43;11.00;99.90
32215;DHT22;18708;53.124;23.190;2022-09-09T14:52:11;11.00;99.90
32215;DHT22;18708;53.124;23.190;2022-09-09T14:54:36;11.10;99.90
32215;DHT22;18708;53.124;23.190;2022-09-09T14:57:02;11.10;99.90
32215;DHT22;18708;53.124;23.190;2022-09-09T14:59:28;11.10;99.90
32215;DHT22;18708;53.124;23.190;2022-09-09T15:01:54;11.00;99.90
32215;DHT22;18708;53.124;23.190;2022-09-09T15:04:19;11.00;99.90
32215;DHT22;18708;53.124;23.190;2022-09-09T15:06:46;11.00;99.90
32215;DHT22;18708;53.124;23.190;2022-09-09T15:09:14;11.00;99.90
32215;DHT22;18708;53.124;23.190;2022-09-09T15:11:40;11.00;99.90
32215;DHT22;18708;53.124;23.190;2022-09-09T15:14:07;11.10;99.90
32215;DHT22;18708;53.124;23.190;2022-09-09T15:16:34;11.00;99.90
32215;DHT22;18708;53.124;23.190;2022-09-09T15:19:01;11.00;99.90
32215;DHT22;18708;53.124;23.190;2022-09-09T15:21:29;11.00;99.90
32215;DHT22;18708;53.124;23.190;2022-09-09T15:23:56;11.00;99.90
32215;DHT22;18708;53.124;23.190;2022-09-09T15:26:22;10.90;99.90
32215;DHT22;18708;53.124;23.190;2022-09-09T15:28:49;10.90;99.90
32215;DHT22;18708;53.124;23.190;2022-09-09T15:31:28;11.00;99.90
32215;DHT22;18708;53.124;23.190;2022-09-09T15:33:56;10.90;99.90
32215;DHT22;18708;53.124;23.190;2022-09-09T15:39:01;11.00;99.90
32215;DHT22;18708;53.124;23.190;2022-09-09T15:41:28;11.00;99.90
32215;DHT22;18708;53.124;23.190;2022-09-09T15:43:55;11.00;99.90
32215;DHT22;18708;53.124;23.190;2022-09-09T15:46:37;10.90;99.90
32215;DHT22;18708;53.124;23.190;2022-09-09T15:51:46;10.90;99.90
32215;DHT22;18708;53.124;23.190;2022-09-09T15:54:15;10.90;99.90
32215;DHT22;18708;53.124;23.190;2022-09-09T15:56:43;10.90;99.90
32215;DHT22;18708;53.124;23.190;2022-09-09T15:59:09;10.90;99.90
32215;DHT22;18708;53.124;23.190;2022-09-09T16:01:35;10.90;99.90
32215;DHT22;18708;53.124;23.190;2022-09-09T16:04:01;10.80;99.90
32215;DHT22;18708;53.124;23.190;2022-09-09T16:06:28;10.80;99.90
32215;DHT22;18708;53.124;23.190;2022-09-09T16:08:55;10.80;99.90
32215;DHT22;18708;53.124;23.190;2022-09-09T16:11:27;10.80;99.90
32215;DHT22;18708;53.124;23.190;2022-09-09T16:13:54;10.90;99.90
32215;DHT22;18708;53.124;23.190;2022-09-09T16:16:23;10.90;99.90
32215;DHT22;18708;53.124;23.190;2022-09-09T16:18:55;10.80;99.90
32215;DHT22;18708;53.124;23.190;2022-09-09T16:21:26;10.90;99.90
32215;DHT22;18708;53.124;23.190;2022-09-09T16:23:55;10.80;99.90
32215;DHT22;18708;53.124;23.190;2022-09-09T16:26:22;10.80;99.90
32215;DHT22;18708;53.124;23.190;2022-09-09T16:28:48;10.80;99.90
32215;DHT22;18708;53.124;23.190;2022-09-09T16:31:20;10.80;99.90
32215;DHT22;18708;53.124;23.190;2022-09-09T16:33:47;10.80;99.90
32215;DHT22;18708;53.124;23.190;2022-09-09T16:36:16;10.80;99.90
32215;DHT22;18708;53.124;23.190;2022-09-09T16:38:42;10.80;99.90
32215;DHT22;18708;53.124;23.190;2022-09-09T16:41:09;10.90;99.90
32215;DHT22;18708;53.124;23.190;2022-09-09T16:43:36;10.90;99.90
32215;DHT22;18708;53.124;23.190;2022-09-09T16:46:11;10.90;99.90
32215;DHT22;18708;53.124;23.190;2022-09-09T16:48:37;10.90;99.90
32215;DHT22;18708;53.124;23.190;2022-09-09T16:51:09;10.90;99.90
32215;DHT22;18708;53.124;23.190;2022-09-09T16:53:36;10.90;99.90
32215;DHT22;18708;53.124;23.190;2022-09-09T16:56:06;11.00;99.90
32215;DHT22;18708;53.124;23.190;2022-09-09T16:58:32;11.00;99.90
32215;DHT22;18708;53.124;23.190;2022-09-09T17:01:02;11.00;99.90
32215;DHT22;18708;53.124;23.190;2022-09-09T17:03:29;11.00;99.90
32215;DHT22;18708;53.124;23.190;2022-09-09T17:05:55;11.00;99.90
32215;DHT22;18708;53.124;23.190;2022-09-09T17:08:20;11.00;99.90
32215;DHT22;18708;53.124;23.190;2022-09-09T17:10:46;11.00;99.90
32215;DHT22;18708;53.124;23.190;2022-09-09T17:13:13;11.10;99.90
32215;DHT22;18708;53.124;23.190;2022-09-09T17:15:40;11.10;99.90
32215;DHT22;18708;53.124;23.190;2022-09-09T17:18:10;11.10;99.90
32215;DHT22;18708;53.124;23.190;2022-09-09T17:20:40;11.10;99.90
32215;DHT22;18708;53.124;23.190;2022-09-09T17:23:11;11.10;99.90
32215;DHT22;18708;53.124;23.190;2022-09-09T17:25:37;11.10;99.90
32215;DHT22;18708;53.124;23.190;2022-09-09T17:28:04;11.10;99.90
32215;DHT22;18708;53.124;23.190;2022-09-09T17:30:35;11.10;99.90
32215;DHT22;18708;53.124;23.190;2022-09-09T17:33:03;11.10;99.90
32215;DHT22;18708;53.124;23.190;2022-09-09T17:35:31;11.10;99.90
32215;DHT22;18708;53.124;23.190;2022-09-09T17:37:56;11.10;99.90
32215;DHT22;18708;53.124;23.190;2022-09-09T17:40:23;11.10;99.90
32215;DHT22;18708;53.124;23.190;2022-09-09T17:42:50;11.20;99.90
32215;DHT22;18708;53.124;23.190;2022-09-09T17:45:16;11.20;99.90
32215;DHT22;18708;53.124;23.190;2022-09-09T17:47:42;11.20;99.90
32215;DHT22;18708;53.124;23.190;2022-09-09T17:50:09;11.30;99.90